createdAt,value
2018-02-22T00:01:07.294Z,1.70
2018-02-22T00:03:34.861Z,1.70
2018-02-22T00:06:02.562Z,1.70
2018-02-22T00:08:30.386Z,1.90
2018-02-22T00:10:58.046Z,2.00
2018-02-22T00:13:25.589Z,2.00
2018-02-22T00:15:53.166Z,2.00
2018-02-22T00:18:20.690Z,2.00
2018-02-22T00:20:49.018Z,2.00
2018-02-22T00:23:16.803Z,2.10
2018-02-22T00:25:44.392Z,2.10
2018-02-22T00:28:11.949Z,2.00
2018-02-22T00:30:39.514Z,2.10
2018-02-22T00:33:07.889Z,2.00
2018-02-22T00:35:35.463Z,2.00
2018-02-22T00:38:04.446Z,2.00
2018-02-22T00:40:34.826Z,2.00
2018-02-22T00:43:03.771Z,2.00
2018-02-22T00:55:12.172Z,2.10
2018-02-22T00:57:40.403Z,1.90
2018-02-22T01:00:07.941Z,1.90
2018-02-22T01:02:36.366Z,1.90
2018-02-22T01:05:07.538Z,2.00
2018-02-22T01:07:35.055Z,1.90
2018-02-22T01:10:06.688Z,2.00
2018-02-22T01:12:35.086Z,2.00
2018-02-22T01:15:03.836Z,2.00
2018-02-22T01:17:32.741Z,2.00
2018-02-22T01:20:00.302Z,1.90
2018-02-22T01:22:27.887Z,2.00
2018-02-22T01:24:55.445Z,2.00
2018-02-22T01:27:23.969Z,2.00
2018-02-22T01:29:51.488Z,2.00
2018-02-22T01:32:19.028Z,2.00
2018-02-22T01:34:47.284Z,2.10
2018-02-22T01:37:15.217Z,2.00
2018-02-22T01:39:43.506Z,2.10
2018-02-22T01:42:11.061Z,2.10
2018-02-22T01:44:38.618Z,2.10
2018-02-22T01:47:06.147Z,2.00
2018-02-22T01:49:33.724Z,2.00
2018-02-22T01:52:01.319Z,1.90
2018-02-22T01:54:29.487Z,2.00
2018-02-22T01:56:57.071Z,2.00
2018-02-22T01:59:24.611Z,2.10
2018-02-22T02:01:52.152Z,2.00
2018-02-22T02:04:20.666Z,1.90
2018-02-22T02:06:48.208Z,1.90
2018-02-22T02:09:15.736Z,2.10
2018-02-22T02:11:43.528Z,2.20
2018-02-22T02:14:11.553Z,2.20
2018-02-22T02:16:39.486Z,2.20
2018-02-22T02:19:07.027Z,2.20
2018-02-22T02:21:35.373Z,2.20
2018-02-22T02:24:02.909Z,2.10
2018-02-22T02:26:30.488Z,2.10
2018-02-22T02:28:58.536Z,2.20
2018-02-22T02:31:26.072Z,2.20
2018-02-22T02:33:53.640Z,2.10
2018-02-22T02:36:21.193Z,2.20
2018-02-22T02:38:48.742Z,2.10
2018-02-22T02:41:16.311Z,2.00
2018-02-22T02:43:43.847Z,2.10
2018-02-22T02:46:11.434Z,2.00
2018-02-22T02:48:38.966Z,1.90
2018-02-22T02:51:06.567Z,2.00
2018-02-22T02:53:34.111Z,2.00
2018-02-22T02:56:01.631Z,2.10
2018-02-22T02:58:29.206Z,2.00
2018-02-22T03:00:56.742Z,1.90
2018-02-22T03:03:25.695Z,1.90
2018-02-22T03:05:53.247Z,1.90
2018-02-22T03:08:21.209Z,1.90
2018-02-22T03:10:48.777Z,1.80
2018-02-22T03:13:16.542Z,1.90
2018-02-22T03:15:44.570Z,2.00
2018-02-22T03:18:12.907Z,1.90
2018-02-22T03:20:40.450Z,1.90
2018-02-22T03:23:08.374Z,2.00
2018-02-22T03:25:35.909Z,2.00
2018-02-22T03:28:03.488Z,2.10
2018-02-22T03:30:31.082Z,2.00
2018-02-22T03:32:58.619Z,2.10
2018-02-22T03:35:27.767Z,2.00
2018-02-22T03:37:55.282Z,2.00
2018-02-22T03:40:23.574Z,2.20
2018-02-22T03:42:51.156Z,2.20
2018-02-22T03:45:18.679Z,2.20
2018-02-22T03:47:47.031Z,2.10
2018-02-22T03:50:15.143Z,2.10
2018-02-22T03:52:42.723Z,2.00
2018-02-22T03:55:10.250Z,1.90
2018-02-22T03:57:37.784Z,2.10
2018-02-22T04:00:06.656Z,2.00
2018-02-22T04:02:34.250Z,2.10
2018-02-22T04:05:04.615Z,2.10
2018-02-22T04:07:32.487Z,2.10
2018-02-22T04:10:00.238Z,2.10
2018-02-22T04:12:27.797Z,2.00
2018-02-22T04:14:55.361Z,1.90
2018-02-22T04:17:23.188Z,2.00
2018-02-22T04:19:51.515Z,2.00
2018-02-22T04:22:25.068Z,2.00
2018-02-22T04:24:53.419Z,2.00
2018-02-22T04:27:21.182Z,2.00
2018-02-22T04:29:49.507Z,2.10
2018-02-22T04:32:17.097Z,2.10
2018-02-22T04:34:44.626Z,2.00
2018-02-22T04:37:12.979Z,1.90
2018-02-22T04:39:40.512Z,1.90
2018-02-22T04:42:08.831Z,1.80
2018-02-22T04:44:36.427Z,1.70
2018-02-22T04:47:03.968Z,1.70
2018-02-22T04:49:31.531Z,1.70
2018-02-22T04:51:59.120Z,1.70
2018-02-22T04:54:26.928Z,1.70
2018-02-22T04:56:55.228Z,1.90
2018-02-22T04:59:23.871Z,1.90
2018-02-22T05:01:51.865Z,1.80
2018-02-22T05:04:19.427Z,1.90
2018-02-22T05:06:47.447Z,2.00
2018-02-22T05:09:15.028Z,2.00
2018-02-22T05:11:43.166Z,2.00
2018-02-22T05:14:10.803Z,1.80
2018-02-22T05:16:38.615Z,1.90
2018-02-22T05:19:06.138Z,1.90
2018-02-22T05:21:33.678Z,1.90
2018-02-22T05:24:01.240Z,1.80
2018-02-22T05:26:29.554Z,1.80
2018-02-22T05:28:57.122Z,1.80
2018-02-22T05:31:24.669Z,1.80
2018-02-22T05:33:53.156Z,1.70
2018-02-22T05:36:20.720Z,1.60
2018-02-22T05:38:48.261Z,1.70
2018-02-22T05:41:15.883Z,1.50
2018-02-22T05:43:43.944Z,1.60
2018-02-22T05:46:11.494Z,1.60
2018-02-22T05:48:39.900Z,1.70
2018-02-22T05:51:08.741Z,1.80
2018-02-22T05:53:36.297Z,1.80
2018-02-22T05:56:03.834Z,2.00
2018-02-22T05:58:31.356Z,1.90
2018-02-22T06:00:58.942Z,1.90
2018-02-22T06:03:27.232Z,1.80
2018-02-22T06:05:54.792Z,1.80
2018-02-22T06:08:22.380Z,1.70
2018-02-22T06:10:50.000Z,1.70
2018-02-22T06:13:18.455Z,1.80
2018-02-22T06:15:46.012Z,1.80
2018-02-22T06:18:14.035Z,1.80
2018-02-22T06:20:41.581Z,1.90
2018-02-22T06:23:09.156Z,1.80
2018-02-22T06:25:36.682Z,1.70
2018-02-22T06:28:05.011Z,1.70
2018-02-22T06:30:32.606Z,1.70
2018-02-22T06:33:00.926Z,1.70
2018-02-22T06:35:28.465Z,1.70
2018-02-22T06:37:56.467Z,1.60
2018-02-22T06:40:24.032Z,1.60
2018-02-22T06:42:51.586Z,1.70
2018-02-22T06:45:19.792Z,1.70
2018-02-22T06:47:48.054Z,1.70
2018-02-22T06:50:15.577Z,1.50
2018-02-22T06:52:44.382Z,1.50
2018-02-22T06:55:12.169Z,1.50
2018-02-22T06:57:39.766Z,1.40
2018-02-22T07:00:08.225Z,1.60
2018-02-22T07:02:35.852Z,1.60
2018-02-22T07:05:05.203Z,1.50
2018-02-22T07:07:33.993Z,1.50
2018-02-22T07:10:01.583Z,1.50
2018-02-22T07:12:29.148Z,1.40
2018-02-22T07:14:56.930Z,1.40
2018-02-22T07:17:24.456Z,1.40
2018-02-22T07:19:52.090Z,1.40
2018-02-22T07:22:19.628Z,1.40
2018-02-22T07:24:47.191Z,1.40
2018-02-22T07:27:15.736Z,1.40
2018-02-22T07:29:43.281Z,1.50
2018-02-22T07:32:11.748Z,1.50
2018-02-22T07:34:42.240Z,1.50
2018-02-22T07:37:09.795Z,1.50
2018-02-22T07:39:37.372Z,1.40
2018-02-22T07:42:04.947Z,1.50
2018-02-22T07:44:34.238Z,1.50
2018-02-22T07:47:01.802Z,1.50
2018-02-22T07:49:30.163Z,1.50
2018-02-22T07:51:57.746Z,1.50
2018-02-22T07:54:25.276Z,1.60
2018-02-22T07:56:53.331Z,1.70
2018-02-22T07:59:20.872Z,1.80
2018-02-22T08:01:49.033Z,1.80
2018-02-22T08:04:16.645Z,1.80
2018-02-22T08:06:44.250Z,1.90
2018-02-22T08:09:12.606Z,1.90
2018-02-22T08:11:40.165Z,1.90
2018-02-22T08:14:09.238Z,1.60
2018-02-22T08:16:36.797Z,1.60
2018-02-22T08:19:05.207Z,1.70
2018-02-22T08:21:32.760Z,1.80
2018-02-22T08:24:00.377Z,1.80
2018-02-22T08:26:28.164Z,1.80
2018-02-22T08:28:56.021Z,1.90
2018-02-22T08:31:24.356Z,2.00
2018-02-22T08:33:52.520Z,2.10
2018-02-22T08:36:20.724Z,2.00
2018-02-22T08:38:48.880Z,2.10
2018-02-22T08:41:16.399Z,2.10
2018-02-22T08:43:43.951Z,2.10
2018-02-22T08:46:11.651Z,2.10
2018-02-22T08:48:39.462Z,2.20
2018-02-22T08:51:07.029Z,2.20
2018-02-22T08:53:34.587Z,2.30
2018-02-22T08:56:02.189Z,2.40
2018-02-22T08:58:30.504Z,2.30
2018-02-22T09:00:58.105Z,2.30
2018-02-22T09:03:25.782Z,2.40
2018-02-22T09:05:54.829Z,2.50
2018-02-22T09:08:22.584Z,2.50
2018-02-22T09:10:50.131Z,2.60
2018-02-22T09:13:18.758Z,2.50
2018-02-22T09:15:46.354Z,2.40
2018-02-22T09:18:14.343Z,2.30
2018-02-22T09:20:43.162Z,2.70
2018-02-22T09:23:11.783Z,2.60
2018-02-22T09:25:40.245Z,2.60
2018-02-22T09:28:08.813Z,2.70
2018-02-22T09:30:36.389Z,2.70
2018-02-22T09:33:03.965Z,2.60
2018-02-22T09:35:31.915Z,2.60
2018-02-22T09:37:59.462Z,2.40
2018-02-22T09:40:26.996Z,2.50
2018-02-22T09:42:54.592Z,2.40
2018-02-22T09:45:22.129Z,2.40
2018-02-22T09:47:50.065Z,2.50
2018-02-22T09:50:17.625Z,2.70
2018-02-22T09:52:45.190Z,2.80
2018-02-22T09:55:14.284Z,2.70
2018-02-22T09:57:41.850Z,2.70
2018-02-22T10:00:10.156Z,2.30
2018-02-22T10:02:39.202Z,2.30
2018-02-22T10:05:08.671Z,2.30
2018-02-22T10:07:36.277Z,2.50
2018-02-22T10:10:04.709Z,2.60
2018-02-22T10:12:32.247Z,2.50
2018-02-22T10:14:59.782Z,2.50
2018-02-22T10:17:28.315Z,2.60
2018-02-22T10:19:55.856Z,2.50
2018-02-22T10:22:23.438Z,2.60
2018-02-22T10:24:50.998Z,2.70
2018-02-22T10:27:18.601Z,2.80
2018-02-22T10:29:46.150Z,2.80
2018-02-22T10:32:14.623Z,3.00
2018-02-22T10:34:42.687Z,3.00
2018-02-22T10:37:11.143Z,3.10
2018-02-22T10:39:39.897Z,3.00
2018-02-22T10:42:11.192Z,2.80
2018-02-22T10:44:38.802Z,2.70
2018-02-22T10:47:08.651Z,2.90
2018-02-22T10:49:38.876Z,2.90
2018-02-22T10:52:06.852Z,3.00
2018-02-22T10:54:34.566Z,3.10
2018-02-22T10:57:03.506Z,3.10
2018-02-22T10:59:32.491Z,3.00
2018-02-22T11:02:05.944Z,3.00
2018-02-22T11:04:33.492Z,2.90
2018-02-22T11:07:02.358Z,3.00
2018-02-22T11:09:29.938Z,3.00
2018-02-22T11:11:57.559Z,3.00
2018-02-22T11:14:25.095Z,3.10
2018-02-22T11:16:52.660Z,3.10
2018-02-22T11:19:20.263Z,3.30
2018-02-22T11:21:47.871Z,3.20
2018-02-22T11:24:16.202Z,3.30
2018-02-22T11:26:43.772Z,3.30
2018-02-22T11:29:11.333Z,3.40
2018-02-22T11:31:38.895Z,3.20
2018-02-22T11:34:06.436Z,3.20
2018-02-22T11:36:33.975Z,3.30
2018-02-22T11:39:02.293Z,3.20
2018-02-22T11:41:29.863Z,3.30
2018-02-22T11:43:58.172Z,3.30
2018-02-22T11:46:26.513Z,3.30
2018-02-22T11:48:54.101Z,3.30
2018-02-22T11:51:22.420Z,3.40
2018-02-22T11:53:50.187Z,3.40
2018-02-22T11:56:17.830Z,3.50
2018-02-22T11:58:45.368Z,3.50
2018-02-22T12:01:13.556Z,3.60
2018-02-22T12:03:41.082Z,3.70
2018-02-22T12:06:08.662Z,3.70
2018-02-22T12:08:36.189Z,3.70
2018-02-22T12:11:03.785Z,3.70
2018-02-22T12:13:32.087Z,3.70
2018-02-22T12:15:59.855Z,3.70
2018-02-22T12:18:27.397Z,3.80
2018-02-22T12:20:55.731Z,3.80
2018-02-22T12:23:23.666Z,4.00
2018-02-22T12:25:51.221Z,4.00
2018-02-22T12:28:19.742Z,4.10
2018-02-22T12:30:47.286Z,3.90
2018-02-22T12:33:15.167Z,4.00
2018-02-22T12:35:44.395Z,4.00
2018-02-22T12:38:11.942Z,4.00
2018-02-22T12:40:40.383Z,4.00
2018-02-22T12:43:08.033Z,3.90
2018-02-22T12:45:35.573Z,3.80
2018-02-22T12:48:03.106Z,3.70
2018-02-22T12:50:31.693Z,3.80
2018-02-22T12:52:59.224Z,3.80
2018-02-22T12:55:26.794Z,3.80
2018-02-22T12:57:54.401Z,3.80
2018-02-22T13:00:21.940Z,3.90
2018-02-22T13:02:50.267Z,3.60
2018-02-22T13:05:17.862Z,3.60
2018-02-22T13:07:45.395Z,3.50
2018-02-22T13:10:14.142Z,3.60
2018-02-22T13:12:41.702Z,3.60
2018-02-22T13:15:09.916Z,3.50
2018-02-22T13:17:37.978Z,3.40
2018-02-22T13:20:07.778Z,3.30
2018-02-22T13:22:35.327Z,3.50
2018-02-22T13:25:04.587Z,3.60
2018-02-22T13:27:32.137Z,3.50
2018-02-22T13:30:00.601Z,3.60
2018-02-22T13:32:29.269Z,3.60
2018-02-22T13:34:58.125Z,3.70
2018-02-22T13:37:48.451Z,3.60
2018-02-22T13:40:18.330Z,3.50
2018-02-22T13:42:48.469Z,3.30
2018-02-22T13:45:37.470Z,3.30
2018-02-22T13:48:07.401Z,3.30
2018-02-22T13:50:47.649Z,3.40
2018-02-22T13:53:16.094Z,3.40
2018-02-22T13:55:45.464Z,3.40
2018-02-22T13:58:15.709Z,3.60
2018-02-22T14:00:56.193Z,3.60
2018-02-22T14:03:25.517Z,3.50
2018-02-22T14:05:54.662Z,3.50
2018-02-22T14:08:43.425Z,3.60
2018-02-22T14:11:12.571Z,3.40
2018-02-22T14:13:40.590Z,3.40
2018-02-22T14:16:08.221Z,3.40
2018-02-22T14:18:36.457Z,3.30
2018-02-22T14:21:04.824Z,3.50
2018-02-22T14:23:36.837Z,3.40
2018-02-22T14:26:04.892Z,3.30
2018-02-22T14:28:34.779Z,3.50
2018-02-22T14:31:03.070Z,3.40
2018-02-22T14:43:12.012Z,3.50
2018-02-22T14:45:43.925Z,3.20
2018-02-22T14:48:12.750Z,3.20
2018-02-22T14:50:43.159Z,3.20
2018-02-22T14:53:13.023Z,3.20
2018-02-22T14:55:41.426Z,3.20
2018-02-22T14:58:10.294Z,3.20
2018-02-22T15:00:40.692Z,3.30
2018-02-22T15:03:09.282Z,3.50
2018-02-22T15:05:36.965Z,3.50
2018-02-22T15:08:04.519Z,3.40
2018-02-22T15:10:32.148Z,3.40
2018-02-22T15:12:59.689Z,3.50
2018-02-22T15:15:27.221Z,3.50
2018-02-22T15:17:54.808Z,3.60
2018-02-22T15:20:22.364Z,3.50
2018-02-22T15:22:49.991Z,3.60
2018-02-22T15:25:17.521Z,3.60
2018-02-22T15:27:46.244Z,3.30
2018-02-22T15:30:14.416Z,3.30
2018-02-22T15:32:41.984Z,3.30
2018-02-22T15:35:09.666Z,3.40
2018-02-22T15:37:38.004Z,3.40
2018-02-22T15:40:07.273Z,3.50
2018-02-22T15:42:35.713Z,3.50
2018-02-22T15:45:04.013Z,3.50
2018-02-22T15:47:32.007Z,3.50
2018-02-22T15:50:00.449Z,3.50
2018-02-22T15:52:28.025Z,3.30
2018-02-22T15:54:55.567Z,3.40
2018-02-22T15:57:24.338Z,3.40
2018-02-22T15:59:51.920Z,3.20
2018-02-22T16:02:19.461Z,3.20
2018-02-22T16:04:47.253Z,3.30
2018-02-22T16:07:14.780Z,3.20
2018-02-22T16:09:42.327Z,3.20
2018-02-22T16:12:10.221Z,3.00
2018-02-22T16:14:37.799Z,2.90
2018-02-22T16:17:05.331Z,2.80
2018-02-22T16:19:32.908Z,2.80
2018-02-22T16:22:00.447Z,2.80
2018-02-22T16:24:28.475Z,2.70
2018-02-22T16:26:56.111Z,2.60
2018-02-22T16:29:23.655Z,2.60
2018-02-22T16:31:51.324Z,2.60
2018-02-22T16:34:19.419Z,2.70
2018-02-22T16:36:46.954Z,2.70
2018-02-22T16:39:14.534Z,2.50
2018-02-22T16:41:42.084Z,2.40
2018-02-22T16:44:11.455Z,2.30
2018-02-22T16:46:39.023Z,2.30
2018-02-22T16:49:06.613Z,2.20
2018-02-22T16:51:35.280Z,2.20
2018-02-22T16:54:05.113Z,2.10
2018-02-22T16:56:36.010Z,2.30
2018-02-22T16:59:05.020Z,2.30
2018-02-22T17:01:33.269Z,2.30
2018-02-22T17:04:01.610Z,2.30
2018-02-22T17:06:29.211Z,2.20
2018-02-22T17:08:56.971Z,2.00
2018-02-22T17:11:24.499Z,2.00
2018-02-22T17:13:52.109Z,2.00
2018-02-22T17:16:19.642Z,2.10
2018-02-22T17:18:47.243Z,2.10
2018-02-22T17:21:15.257Z,2.20
2018-02-22T17:23:42.839Z,2.20
2018-02-22T17:26:16.805Z,2.30
2018-02-22T17:28:50.925Z,2.20
2018-02-22T17:31:24.062Z,2.20
2018-02-22T17:33:51.637Z,2.20
2018-02-22T17:36:20.823Z,2.00
2018-02-22T17:38:51.388Z,2.10
2018-02-22T17:41:20.512Z,2.00
2018-02-22T17:43:48.877Z,2.00
2018-02-22T17:46:16.500Z,2.00
2018-02-22T17:48:44.285Z,1.80
2018-02-22T17:51:11.855Z,1.90
2018-02-22T17:53:39.945Z,1.80
2018-02-22T17:56:07.887Z,1.80
2018-02-22T17:58:35.466Z,1.80
2018-02-22T18:01:03.718Z,1.80
2018-02-22T18:03:31.353Z,1.90
2018-02-22T18:05:58.953Z,2.00
2018-02-22T18:08:26.532Z,1.80
2018-02-22T18:10:54.127Z,1.70
2018-02-22T18:13:22.085Z,1.70
2018-02-22T18:15:49.646Z,1.70
2018-02-22T18:18:18.032Z,1.90
2018-02-22T18:20:46.570Z,1.80
2018-02-22T18:23:14.248Z,1.80
2018-02-22T18:25:42.613Z,1.60
2018-02-22T18:28:11.080Z,1.60
2018-02-22T18:30:38.709Z,1.50
2018-02-22T18:33:06.461Z,1.50
2018-02-22T18:35:34.003Z,1.40
2018-02-22T18:38:01.535Z,1.50
2018-02-22T18:40:34.819Z,1.60
2018-02-22T18:43:07.924Z,1.50
2018-02-22T18:45:35.501Z,1.70
2018-02-22T18:48:04.674Z,1.80
2018-02-22T18:50:32.300Z,1.80
2018-02-22T18:52:59.883Z,2.00
2018-02-22T18:55:27.672Z,2.00
2018-02-22T18:57:55.225Z,1.80
2018-02-22T19:00:23.128Z,1.80
2018-02-22T19:02:50.728Z,1.90
2018-02-22T19:05:18.329Z,1.90
2018-02-22T19:07:46.367Z,1.80
2018-02-22T19:10:13.901Z,1.80
2018-02-22T19:12:42.455Z,1.90
2018-02-22T19:15:10.863Z,1.90
2018-02-22T19:17:38.860Z,1.90
2018-02-22T19:20:07.808Z,1.80
2018-02-22T19:22:36.885Z,1.60
2018-02-22T19:25:06.832Z,1.60
2018-02-22T19:27:35.202Z,1.50
2018-02-22T19:30:03.782Z,1.70
2018-02-22T19:32:32.287Z,1.60
2018-02-22T19:34:59.824Z,1.60
2018-02-22T19:37:27.551Z,1.70
2018-02-22T19:39:55.087Z,1.70
2018-02-22T19:42:22.624Z,1.80
2018-02-22T19:44:50.222Z,1.90
2018-02-22T19:47:18.819Z,1.90
2018-02-22T19:49:46.342Z,1.90
2018-02-22T19:52:14.235Z,2.00
2018-02-22T19:54:41.845Z,2.00
2018-02-22T19:57:09.508Z,1.90
2018-02-22T19:59:37.335Z,2.00
2018-02-22T20:02:04.876Z,2.00
2018-02-22T20:04:32.517Z,2.00
2018-02-22T20:07:00.112Z,2.10
2018-02-22T20:09:27.905Z,2.00
2018-02-22T20:11:56.926Z,1.90
2018-02-22T20:14:24.567Z,2.00
2018-02-22T20:16:53.526Z,1.90
2018-02-22T20:19:22.654Z,1.90
2018-02-22T20:21:50.256Z,1.90
2018-02-22T20:24:18.343Z,1.90
2018-02-22T20:26:47.348Z,1.90
2018-02-22T20:29:14.969Z,1.80
2018-02-22T20:31:42.499Z,1.80
2018-02-22T20:34:11.594Z,1.70
2018-02-22T20:36:39.179Z,1.80
2018-02-22T20:39:06.741Z,1.70
2018-02-22T20:41:34.301Z,1.70
2018-02-22T20:44:01.898Z,1.70
2018-02-22T20:46:29.465Z,1.70
2018-02-22T20:48:57.025Z,1.60
2018-02-22T20:51:25.144Z,1.60
2018-02-22T20:53:52.786Z,1.80
2018-02-22T20:56:21.139Z,1.90
2018-02-22T20:58:48.720Z,1.90
2018-02-22T21:01:17.327Z,1.90
2018-02-22T21:03:45.782Z,1.90
2018-02-22T21:06:13.311Z,2.00
2018-02-22T21:08:41.668Z,2.00
2018-02-22T21:11:09.226Z,2.10
2018-02-22T21:13:36.792Z,2.00
2018-02-22T21:16:04.401Z,2.00
2018-02-22T21:18:31.930Z,1.70
2018-02-22T21:20:59.498Z,1.50
2018-02-22T21:23:27.081Z,1.60
2018-02-22T21:25:54.639Z,1.60
2018-02-22T21:28:22.213Z,1.60
2018-02-22T21:30:49.814Z,1.70
2018-02-22T21:33:17.456Z,1.70
2018-02-22T21:35:46.122Z,1.60
2018-02-22T21:38:13.692Z,1.70
2018-02-22T21:40:41.274Z,1.70
2018-02-22T21:43:08.862Z,1.80
2018-02-22T21:45:36.465Z,1.70
2018-02-22T21:48:04.865Z,1.90
2018-02-22T21:50:32.444Z,1.90
2018-02-22T21:53:00.062Z,1.90
2018-02-22T21:55:27.629Z,1.90
2018-02-22T21:57:55.194Z,2.00
2018-02-22T22:00:23.572Z,2.10
2018-02-22T22:02:52.847Z,2.10
2018-02-22T22:05:20.408Z,2.10
2018-02-22T22:07:48.748Z,2.20
2018-02-22T22:10:16.439Z,2.20
2018-02-22T22:12:44.029Z,2.20
2018-02-22T22:15:11.593Z,2.20
2018-02-22T22:17:40.614Z,2.00
2018-02-22T22:20:08.158Z,2.00
2018-02-22T22:22:35.776Z,2.10
2018-02-22T22:25:05.030Z,2.00
2018-02-22T22:27:32.653Z,2.00
2018-02-22T22:30:00.226Z,2.00
2018-02-22T22:32:27.778Z,2.10
2018-02-22T22:34:56.283Z,2.10
2018-02-22T22:37:23.806Z,2.20
2018-02-22T22:39:51.361Z,2.20
2018-02-22T22:42:19.865Z,1.90
2018-02-22T22:44:47.573Z,1.90
2018-02-22T22:47:15.118Z,1.90
2018-02-22T22:49:42.702Z,2.00
2018-02-22T22:52:11.311Z,2.10
2018-02-22T22:54:39.596Z,2.00
2018-02-22T22:57:07.176Z,2.00
2018-02-22T22:59:36.465Z,2.00
2018-02-22T23:02:05.075Z,2.00
2018-02-22T23:04:32.613Z,2.10
2018-02-22T23:07:01.029Z,2.10
2018-02-22T23:09:28.714Z,2.10
2018-02-22T23:11:56.246Z,2.20
2018-02-22T23:14:24.498Z,2.20
2018-02-22T23:16:52.807Z,2.20
2018-02-22T23:19:20.387Z,2.30
2018-02-22T23:21:47.924Z,2.30
2018-02-22T23:24:15.982Z,2.20
2018-02-22T23:26:43.566Z,2.10
2018-02-22T23:29:11.095Z,2.00
2018-02-22T23:31:38.724Z,1.90
2018-02-22T23:34:07.303Z,1.90
2018-02-22T23:36:35.626Z,2.00
2018-02-22T23:39:03.237Z,2.00
2018-02-22T23:41:50.263Z,2.00
2018-02-22T23:44:18.305Z,2.00
2018-02-22T23:46:45.945Z,2.10
2018-02-22T23:49:13.492Z,2.00
2018-02-22T23:51:41.063Z,1.90
2018-02-22T23:54:08.618Z,1.90
2018-02-22T23:56:36.160Z,2.00
2018-02-22T23:59:04.532Z,2.10
